createdAt,value
2022-10-05T00:01:31.050Z,100140.75
2022-10-05T00:04:12.030Z,100138.84
2022-10-05T00:06:40.489Z,100136.63
2022-10-05T00:09:17.402Z,100142.44
2022-10-05T00:11:46.753Z,100140.25
2022-10-05T00:14:19.903Z,100143.25
2022-10-05T00:16:50.340Z,100130.28
2022-10-05T00:19:25.046Z,100140.47
2022-10-05T00:21:53.431Z,100129.44
2022-10-05T00:24:22.098Z,100122.28
2022-10-05T00:26:54.192Z,100120.59
2022-10-05T00:29:26.069Z,100112.31
2022-10-05T00:31:55.816Z,100117.28
2022-10-05T00:34:24.229Z,100107.63
2022-10-05T00:36:52.544Z,100110.09
2022-10-05T00:39:20.891Z,100121.16
2022-10-05T00:42:10.403Z,100121.72
2022-10-05T00:44:46.563Z,100122.22
2022-10-05T00:47:37.684Z,100121.94
2022-10-05T00:50:24.813Z,100121.59
2022-10-05T00:53:01.275Z,100119.13
2022-10-05T00:55:45.131Z,100119.66
2022-10-05T00:58:27.309Z,100118.81
2022-10-05T01:01:05.471Z,100114.41
2022-10-05T01:03:49.205Z,100112.44
2022-10-05T01:06:25.935Z,100118.81
2022-10-05T01:09:08.861Z,100117.97
2022-10-05T01:11:49.256Z,100112.72
2022-10-05T01:14:25.813Z,100113.56
2022-10-05T01:17:00.569Z,100107.22
2022-10-05T01:19:56.600Z,100108.84
2022-10-05T01:22:42.460Z,100118.22
2022-10-05T01:25:24.938Z,100117.09
2022-10-05T01:28:04.373Z,100125.09
2022-10-05T01:30:41.234Z,100112.41
2022-10-05T01:33:22.333Z,100104.38
2022-10-05T01:36:01.805Z,100101.63
2022-10-05T01:38:45.658Z,100099.13
2022-10-05T01:41:28.086Z,100090.28
2022-10-05T01:44:03.613Z,100081.16
2022-10-05T01:46:40.164Z,100090.56
2022-10-05T01:49:33.327Z,100085.28
2022-10-05T01:52:16.355Z,100079.78
2022-10-05T01:54:58.075Z,100072.31
2022-10-05T01:57:36.824Z,100071.25
2022-10-05T02:00:12.511Z,100074.25
2022-10-05T02:02:47.244Z,100063.22
2022-10-05T02:05:22.835Z,100066.25
2022-10-05T02:07:57.563Z,100064.56
2022-10-05T02:10:31.557Z,100063.75
2022-10-05T02:13:07.240Z,100062.38
2022-10-05T02:15:43.521Z,100065.38
2022-10-05T02:18:15.735Z,100064.56
2022-10-05T02:20:46.538Z,100063.97
2022-10-05T02:23:21.996Z,100063.69
2022-10-05T02:25:54.045Z,100061.47
2022-10-05T02:28:28.663Z,100064.78
2022-10-05T02:31:05.415Z,100058.94
2022-10-05T02:33:36.491Z,100059.22
2022-10-05T02:36:14.995Z,100061.66
2022-10-05T02:39:00.412Z,100057.25
2022-10-05T02:41:43.483Z,100060.25
2022-10-05T02:44:29.841Z,100052.53
2022-10-05T02:47:10.428Z,100049.44
2022-10-05T02:49:49.733Z,100041.72
2022-10-05T02:52:26.367Z,100033.69
2022-10-05T02:55:04.723Z,100034.25
2022-10-05T02:57:40.185Z,100036.41
2022-10-05T03:00:15.088Z,100036.69
2022-10-05T03:02:52.257Z,100032.53
2022-10-05T03:05:26.747Z,100030.88
2022-10-05T03:08:02.190Z,100035.56
2022-10-05T03:10:38.187Z,100032.25
2022-10-05T03:13:12.081Z,100025.91
2022-10-05T03:16:13.941Z,100028.31
2022-10-05T03:18:57.774Z,100034.69
2022-10-05T03:21:49.546Z,100033.28
2022-10-05T03:24:47.621Z,100027.19
2022-10-05T03:27:30.896Z,100020.03
2022-10-05T03:30:07.353Z,100020.84
2022-10-05T03:32:49.896Z,100026.63
2022-10-05T03:35:28.776Z,100022.25
2022-10-05T03:38:09.296Z,100015.06
2022-10-05T03:40:45.920Z,100017.81
2022-10-05T03:43:34.547Z,100005.38
2022-10-05T03:46:09.828Z,100008.13
2022-10-05T03:48:50.255Z,100010.06
2022-10-05T03:51:25.942Z,100000.38
2022-10-05T03:54:01.036Z,99998.41
2022-10-05T03:56:37.394Z,100012.53
2022-10-05T03:59:14.556Z,100010.00
2022-10-05T04:01:50.946Z,100003.69
2022-10-05T04:04:27.222Z,100003.69
2022-10-05T04:06:58.955Z,99995.41
2022-10-05T04:09:33.633Z,99996.78
2022-10-05T04:12:11.857Z,99997.63
2022-10-05T04:14:45.973Z,100004.19
2022-10-05T04:17:19.282Z,100010.22
2022-10-05T04:19:57.585Z,100013.53
2022-10-05T04:22:33.004Z,100020.13
2022-10-05T04:25:13.881Z,100025.34
2022-10-05T04:27:48.291Z,100012.66
2022-10-05T04:30:20.416Z,100013.13
2022-10-05T04:32:54.550Z,100014.81
2022-10-05T04:36:06.095Z,100018.91
2022-10-05T04:38:53.354Z,100016.44
2022-10-05T04:41:37.953Z,100012.56
2022-10-05T04:44:33.024Z,100013.69
2022-10-05T04:47:25.894Z,100021.69
2022-10-05T04:50:24.678Z,100018.34
2022-10-05T04:53:03.376Z,100026.34
2022-10-05T04:55:41.212Z,100020.84
2022-10-05T04:58:21.511Z,100023.34
2022-10-05T05:01:02.717Z,100018.66
2022-10-05T05:03:47.260Z,100017.56
2022-10-05T05:06:33.831Z,100023.91
2022-10-05T05:09:36.811Z,100032.19
2022-10-05T05:12:25.684Z,100033.25
2022-10-05T05:15:39.045Z,100048.16
2022-10-05T05:18:59.291Z,100043.22
2022-10-05T05:21:41.922Z,100039.69
2022-10-05T05:24:19.102Z,100037.22
2022-10-05T05:27:19.990Z,100043.06
2022-10-05T05:30:02.924Z,100052.47
2022-10-05T05:32:45.472Z,100059.13
2022-10-05T05:35:42.354Z,100048.41
2022-10-05T05:38:28.081Z,100043.19
2022-10-05T05:41:10.147Z,100051.50
2022-10-05T05:43:54.201Z,100055.94
2022-10-05T05:46:45.006Z,100055.16
2022-10-05T05:49:23.948Z,100052.16
2022-10-05T05:51:59.238Z,100050.00
2022-10-05T05:54:34.973Z,100050.91
2022-10-05T05:57:16.484Z,100055.34
2022-10-05T06:00:07.344Z,100053.47
2022-10-05T06:02:43.981Z,100060.41
2022-10-05T06:05:31.478Z,100058.50
2022-10-05T06:08:08.194Z,100070.97
2022-10-05T06:10:46.533Z,100074.59
2022-10-05T06:13:21.678Z,100070.75
2022-10-05T06:15:56.415Z,100073.56
2022-10-05T06:18:26.769Z,100083.53
2022-10-05T06:21:02.294Z,100085.50
2022-10-05T06:23:40.197Z,100089.13
2022-10-05T06:26:25.587Z,100081.13
2022-10-05T06:29:00.731Z,100089.75
2022-10-05T06:31:58.017Z,100091.41
2022-10-05T06:34:57.882Z,100101.66
2022-10-05T06:37:44.384Z,100099.47
2022-10-05T06:40:25.277Z,100089.53
2022-10-05T06:43:17.081Z,100082.94
2022-10-05T06:46:04.907Z,100080.16
2022-10-05T06:48:58.037Z,100079.91
2022-10-05T06:51:36.174Z,100084.34
2022-10-05T06:54:19.233Z,100081.63
2022-10-05T06:56:53.676Z,100090.47
2022-10-05T06:59:30.946Z,100088.00
2022-10-05T07:02:09.281Z,100087.44
2022-10-05T07:05:12.969Z,100093.28
2022-10-05T07:07:52.566Z,100103.00
2022-10-05T07:10:32.467Z,100098.56
2022-10-05T07:13:21.546Z,100083.34
2022-10-05T07:16:01.438Z,100091.91
2022-10-05T07:18:49.323Z,100094.69
2022-10-05T07:21:30.430Z,100094.13
2022-10-05T07:24:13.710Z,100105.19
2022-10-05T07:26:47.517Z,100096.28
2022-10-05T07:29:26.321Z,100091.56
2022-10-05T07:32:08.888Z,100107.63
2022-10-05T07:34:54.832Z,100101.22
2022-10-05T07:37:51.601Z,100100.59
2022-10-05T07:40:28.689Z,100103.00
2022-10-05T07:43:13.943Z,100109.84
2022-10-05T07:45:48.216Z,100110.00
2022-10-05T07:48:22.393Z,100101.88
2022-10-05T07:51:01.214Z,100112.56
2022-10-05T07:53:36.653Z,100103.53
2022-10-05T07:56:14.806Z,100102.56
2022-10-05T07:58:49.357Z,100092.19
2022-10-05T08:01:26.051Z,100091.25
2022-10-05T08:03:58.198Z,100097.56
2022-10-05T08:06:41.433Z,100088.88
2022-10-05T08:09:27.273Z,100093.31
2022-10-05T08:12:08.054Z,100089.34
2022-10-05T08:14:47.494Z,100083.97
2022-10-05T08:17:27.169Z,100079.41
2022-10-05T08:20:12.403Z,100084.91
2022-10-05T08:22:48.366Z,100083.44
2022-10-05T08:25:25.745Z,100087.44
2022-10-05T08:28:04.018Z,100081.44
2022-10-05T08:30:38.172Z,100074.31
2022-10-05T08:33:14.241Z,100075.63
2022-10-05T08:35:46.001Z,100069.69
2022-10-05T08:38:18.569Z,100077.34
2022-10-05T08:41:24.435Z,100065.88
2022-10-05T08:44:47.010Z,100071.63
2022-10-05T08:47:31.408Z,100059.28
2022-10-05T08:50:31.856Z,100062.50
2022-10-05T08:53:27.576Z,100055.03
2022-10-05T08:56:33.855Z,100050.66
2022-10-05T08:59:54.831Z,100048.75
2022-10-05T09:02:38.322Z,100045.88
2022-10-05T09:05:58.481Z,100052.63
2022-10-05T09:09:02.347Z,100044.59
2022-10-05T09:11:39.031Z,100047.97
2022-10-05T09:14:40.199Z,100037.25
2022-10-05T09:17:39.099Z,100036.72
2022-10-05T09:20:31.519Z,100039.84
2022-10-05T09:23:13.882Z,100035.88
2022-10-05T09:26:04.029Z,100036.81
2022-10-05T09:28:43.737Z,100047.59
2022-10-05T09:31:52.493Z,100043.13
2022-10-05T09:34:55.732Z,100043.38
2022-10-05T09:38:08.786Z,100042.34
2022-10-05T09:41:26.517Z,100039.59
2022-10-05T09:44:46.305Z,100038.84
2022-10-05T09:47:47.243Z,100040.56
2022-10-05T09:51:24.550Z,100046.06
2022-10-05T09:54:35.194Z,100036.25
2022-10-05T09:57:53.140Z,100030.41
2022-10-05T10:00:29.347Z,100033.13
2022-10-05T10:03:46.031Z,100038.66
2022-10-05T10:06:46.483Z,100047.28
2022-10-05T10:09:35.168Z,100032.06
2022-10-05T10:12:48.800Z,100030.75
2022-10-05T10:15:43.988Z,100019.06
2022-10-05T10:18:43.976Z,100024.66
2022-10-05T10:21:55.763Z,100012.66
2022-10-05T10:24:53.783Z,100007.72
2022-10-05T10:27:52.208Z,100016.91
2022-10-05T10:30:57.045Z,100018.41
2022-10-05T10:33:57.697Z,100019.72
2022-10-05T10:36:59.468Z,100012.16
2022-10-05T10:39:45.340Z,100015.44
2022-10-05T10:42:40.411Z,100017.38
2022-10-05T10:45:35.961Z,100012.13
2022-10-05T10:48:06.199Z,100009.06
2022-10-05T10:51:13.792Z,100003.09
2022-10-05T10:55:04.465Z,99994.94
2022-10-05T10:57:47.765Z,99994.91
2022-10-05T11:00:50.111Z,99994.16
2022-10-05T11:04:07.362Z,99984.28
2022-10-05T11:07:05.512Z,99980.38
2022-10-05T11:10:22.056Z,99984.28
2022-10-05T11:13:32.511Z,99973.25
2022-10-05T11:16:55.310Z,99974.44
2022-10-05T11:20:03.747Z,99968.00
2022-10-05T11:22:58.707Z,99966.44
2022-10-05T11:26:13.189Z,99961.16
2022-10-05T11:29:31.503Z,99953.88
2022-10-05T11:32:43.950Z,99956.78
2022-10-05T11:35:49.015Z,99952.47
2022-10-05T11:39:06.418Z,99947.72
2022-10-05T11:42:10.818Z,99944.81
2022-10-05T11:45:27.414Z,99937.50
2022-10-05T11:48:41.946Z,99947.63
2022-10-05T11:51:56.622Z,99940.97
2022-10-05T11:55:09.105Z,99931.06
2022-10-05T11:57:43.893Z,99930.91
2022-10-05T12:00:20.950Z,99927.03
2022-10-05T12:03:43.997Z,99927.88
2022-10-05T12:06:38.565Z,99930.97
2022-10-05T12:09:27.913Z,99923.06
2022-10-05T12:12:15.398Z,99921.38
2022-10-05T12:14:58.196Z,99922.28
2022-10-05T12:17:38.129Z,99920.19
2022-10-05T12:20:17.880Z,99910.75
2022-10-05T12:22:52.292Z,99906.59
2022-10-05T12:25:28.229Z,99911.19
2022-10-05T12:28:04.983Z,99908.44
2022-10-05T12:31:04.079Z,99905.44
2022-10-05T12:33:38.961Z,99912.28
2022-10-05T12:36:14.638Z,99913.41
2022-10-05T12:38:52.533Z,99909.81
2022-10-05T12:41:28.666Z,99909.88
2022-10-05T12:44:16.932Z,99911.19
2022-10-05T12:47:02.263Z,99905.09
2022-10-05T12:49:55.085Z,99904.13
2022-10-05T12:52:45.377Z,99910.91
2022-10-05T12:55:26.089Z,99901.50
2022-10-05T12:58:09.177Z,99908.25
2022-10-05T13:00:48.287Z,99897.78
2022-10-05T13:03:26.920Z,99894.59
2022-10-05T13:06:10.930Z,99901.06
2022-10-05T13:08:51.494Z,99908.66
2022-10-05T13:11:28.430Z,99902.09
2022-10-05T13:14:09.316Z,99895.91
2022-10-05T13:16:49.180Z,99889.38
2022-10-05T13:19:35.620Z,99886.63
2022-10-05T13:22:33.617Z,99889.59
2022-10-05T13:25:29.976Z,99888.28
2022-10-05T13:28:15.946Z,99885.44
2022-10-05T13:30:55.991Z,99889.00
2022-10-05T13:33:37.997Z,99887.56
2022-10-05T13:36:17.909Z,99879.97
2022-10-05T13:38:56.441Z,99880.66
2022-10-05T13:41:37.658Z,99884.78
2022-10-05T13:44:19.340Z,99882.91
2022-10-05T13:46:54.088Z,99887.63
2022-10-05T13:49:29.597Z,99897.06
2022-10-05T13:52:20.392Z,99892.94
2022-10-05T13:54:59.895Z,99890.78
2022-10-05T13:57:46.195Z,99892.25
2022-10-05T14:00:22.728Z,99887.09
2022-10-05T14:02:57.489Z,99880.69
2022-10-05T14:05:27.953Z,99877.97
2022-10-05T14:08:11.435Z,99878.88
2022-10-05T14:10:42.983Z,99875.22
2022-10-05T14:13:27.451Z,99877.97
2022-10-05T14:16:15.907Z,99876.31
2022-10-05T14:18:59.233Z,99878.72
2022-10-05T14:21:31.826Z,99877.69
2022-10-05T14:26:59.644Z,99872.56
2022-10-05T14:29:37.144Z,99874.34
2022-10-05T14:32:17.062Z,99872.13
2022-10-05T14:34:46.941Z,99886.91
2022-10-05T14:37:21.636Z,99869.00
2022-10-05T14:39:53.955Z,99877.22
2022-10-05T14:42:27.851Z,99870.19
2022-10-05T14:45:01.534Z,99874.44
2022-10-05T14:47:34.307Z,99870.56
2022-10-05T14:50:16.937Z,99862.09
2022-10-05T14:53:04.604Z,99858.47
2022-10-05T14:55:53.064Z,99867.03
2022-10-05T14:59:15.305Z,99856.47
2022-10-05T15:01:53.947Z,99853.63
2022-10-05T15:04:43.456Z,99855.59
2022-10-05T15:07:25.129Z,99850.88
2022-10-05T15:10:29.550Z,99854.47
2022-10-05T15:13:11.358Z,99849.91
2022-10-05T15:15:50.500Z,99848.84
2022-10-05T15:18:32.380Z,99854.53
2022-10-05T15:21:35.502Z,99855.00
2022-10-05T15:24:09.395Z,99855.53
2022-10-05T15:26:51.713Z,99853.94
2022-10-05T15:29:59.058Z,99855.88
2022-10-05T15:32:42.142Z,99860.06
2022-10-05T15:35:43.194Z,99852.38
2022-10-05T15:38:25.317Z,99853.78
2022-10-05T15:41:08.263Z,99859.41
2022-10-05T15:43:51.074Z,99864.13
2022-10-05T15:46:28.927Z,99857.38
2022-10-05T15:49:16.403Z,99855.78
2022-10-05T15:51:59.765Z,99856.69
2022-10-05T15:55:06.543Z,99861.34
2022-10-05T15:57:46.543Z,99854.31
2022-10-05T16:00:17.466Z,99861.59
2022-10-05T16:02:55.637Z,99855.56
2022-10-05T16:05:59.446Z,99863.13
2022-10-05T16:08:57.199Z,99860.53
2022-10-05T16:12:00.103Z,99861.72
2022-10-05T16:14:47.285Z,99855.81
2022-10-05T16:17:49.235Z,99867.34
2022-10-05T16:20:36.890Z,99865.56
2022-10-05T16:23:19.854Z,99871.19
2022-10-05T16:26:02.086Z,99871.69
2022-10-05T16:28:44.638Z,99880.53
2022-10-05T16:31:20.123Z,99874.59
2022-10-05T16:34:02.166Z,99877.91
2022-10-05T16:36:48.900Z,99872.31
2022-10-05T16:39:38.807Z,99872.47
2022-10-05T16:42:20.152Z,99874.44
2022-10-05T16:44:58.189Z,99882.19
2022-10-05T16:47:44.145Z,99891.88
2022-10-05T16:50:24.343Z,99878.72
2022-10-05T16:53:01.216Z,99894.47
2022-10-05T16:55:36.599Z,99890.19
2022-10-05T16:58:14.906Z,99886.69
2022-10-05T17:01:03.274Z,99895.56
2022-10-05T17:03:52.986Z,99897.34
2022-10-05T17:06:50.395Z,99894.22
2022-10-05T17:09:45.377Z,99898.31
2022-10-05T17:12:42.457Z,99898.13
2022-10-05T17:15:30.281Z,99902.56
2022-10-05T17:18:29.965Z,99905.78
2022-10-05T17:21:08.028Z,99909.75
2022-10-05T17:23:54.741Z,99911.34
2022-10-05T17:27:17.809Z,99914.59
2022-10-05T17:29:51.970Z,99914.94
2022-10-05T17:32:55.299Z,99916.19
2022-10-05T17:35:50.799Z,99914.38
2022-10-05T17:38:23.203Z,99921.91
2022-10-05T17:41:33.007Z,99917.41
2022-10-05T17:44:26.432Z,99916.09
2022-10-05T17:46:58.267Z,99911.63
2022-10-05T17:50:16.515Z,99912.91
2022-10-05T17:53:03.215Z,99921.28
2022-10-05T17:56:03.358Z,99925.66
2022-10-05T17:59:04.414Z,99921.38
2022-10-05T18:01:37.524Z,99921.03
2022-10-05T18:04:39.931Z,99916.75
2022-10-05T18:07:26.632Z,99925.41
2022-10-05T18:09:59.812Z,99921.28
2022-10-05T18:12:49.324Z,99925.84
2022-10-05T18:15:48.931Z,99927.63
2022-10-05T18:18:57.427Z,99934.16
2022-10-05T18:21:34.555Z,99935.81
2022-10-05T18:24:31.460Z,99931.16
2022-10-05T18:27:27.487Z,99934.28
2022-10-05T18:30:18.047Z,99935.75
2022-10-05T18:33:22.339Z,99927.50
2022-10-05T18:36:04.184Z,99928.94
2022-10-05T18:38:47.197Z,99922.06
2022-10-05T18:41:32.296Z,99926.28
2022-10-05T18:44:32.081Z,99922.47
2022-10-05T18:47:09.752Z,99927.50
2022-10-05T18:50:03.610Z,99924.03
2022-10-05T18:52:51.222Z,99925.78
2022-10-05T18:55:32.963Z,99929.72
2022-10-05T18:58:17.691Z,99929.50
2022-10-05T19:01:27.364Z,99925.19
2022-10-05T19:04:16.221Z,99923.84
2022-10-05T19:07:01.794Z,99918.88
2022-10-05T19:10:09.798Z,99927.69
2022-10-05T19:12:55.032Z,99932.75
2022-10-05T19:15:32.351Z,99931.41
2022-10-05T19:18:26.435Z,99935.13
2022-10-05T19:21:10.038Z,99936.56
2022-10-05T19:24:17.691Z,99933.88
2022-10-05T19:27:07.263Z,99945.97
2022-10-05T19:30:01.928Z,99942.47
2022-10-05T19:32:41.905Z,99941.97
2022-10-05T19:35:26.505Z,99944.53
2022-10-05T19:38:15.553Z,99944.03
2022-10-05T19:40:56.650Z,99951.88
2022-10-05T19:43:51.565Z,99959.19
2022-10-05T19:46:39.257Z,99954.25
2022-10-05T19:49:11.350Z,99961.75
2022-10-05T19:51:51.549Z,99957.09
2022-10-05T19:54:26.945Z,99962.16
2022-10-05T19:56:57.695Z,99966.09
2022-10-05T19:59:32.091Z,99969.47
2022-10-05T20:02:02.846Z,99969.78
2022-10-05T20:04:37.841Z,99972.03
2022-10-05T20:07:06.688Z,99973.19
2022-10-05T20:09:52.879Z,99976.38
2022-10-05T20:12:23.092Z,99976.88
2022-10-05T20:18:04.140Z,99988.94
2022-10-05T20:20:42.328Z,99985.13
2022-10-05T20:23:24.621Z,99986.56
2022-10-05T20:26:11.315Z,99986.56
2022-10-05T20:28:40.236Z,99998.81
2022-10-05T20:31:08.897Z,100005.22
2022-10-05T20:33:40.569Z,100000.78
2022-10-05T20:36:09.247Z,100004.41
2022-10-05T20:38:41.050Z,100007.50
2022-10-05T20:41:10.388Z,100006.34
2022-10-05T20:43:39.518Z,100005.81
2022-10-05T20:46:08.650Z,100014.19
2022-10-05T20:48:38.642Z,100007.78
2022-10-05T20:51:07.430Z,100013.34
2022-10-05T20:53:35.861Z,100012.56
2022-10-05T20:56:04.707Z,100010.03
2022-10-05T20:58:33.063Z,100015.09
2022-10-05T21:01:19.086Z,100021.50
2022-10-05T21:03:49.733Z,100025.41
2022-10-05T21:06:19.082Z,100017.38
2022-10-05T21:08:47.533Z,100015.69
2022-10-05T21:11:16.330Z,100025.50
2022-10-05T21:13:45.831Z,100023.31
2022-10-05T21:16:15.564Z,100018.03
2022-10-05T21:18:46.951Z,100015.56
2022-10-05T21:21:17.362Z,100022.56
2022-10-05T21:23:45.952Z,100025.66
2022-10-05T21:26:15.546Z,100026.28
2022-10-05T21:28:43.986Z,100027.69
2022-10-05T21:31:12.655Z,100027.19
2022-10-05T21:33:41.059Z,100028.91
2022-10-05T21:36:09.587Z,100028.69
2022-10-05T21:38:39.376Z,100025.69
2022-10-05T21:41:07.856Z,100030.50
2022-10-05T21:43:36.433Z,100031.13
2022-10-05T21:46:04.990Z,100032.81
2022-10-05T21:48:34.972Z,100028.97
2022-10-05T21:51:04.746Z,100025.97
2022-10-05T21:53:37.737Z,100027.69
2022-10-05T21:56:12.485Z,100026.94
2022-10-05T21:58:42.773Z,100033.41
2022-10-05T22:01:11.239Z,100031.53
2022-10-05T22:03:39.752Z,100018.53
2022-10-05T22:06:08.348Z,100021.06
2022-10-05T22:08:37.031Z,100020.00
2022-10-05T22:11:14.198Z,100022.84
2022-10-05T22:13:45.036Z,100023.16
2022-10-05T22:16:14.250Z,100016.56
2022-10-05T22:18:43.165Z,100019.59
2022-10-05T22:21:13.325Z,100017.44
2022-10-05T22:23:42.953Z,100023.28
2022-10-05T22:26:16.740Z,100019.44
2022-10-05T22:28:45.824Z,100027.78
2022-10-05T22:31:15.466Z,100023.97
2022-10-05T22:33:43.972Z,100025.38
2022-10-05T22:36:12.411Z,100035.13
2022-10-05T22:38:40.791Z,100031.00
2022-10-05T22:41:14.069Z,100032.72
2022-10-05T22:43:42.557Z,100037.75
2022-10-05T22:46:12.281Z,100032.78
2022-10-05T22:48:41.377Z,100035.03
2022-10-05T22:51:10.350Z,100046.72
2022-10-05T22:53:39.088Z,100045.63
2022-10-05T22:56:10.418Z,100039.28
2022-10-05T22:58:41.844Z,100051.28
2022-10-05T23:01:13.301Z,100047.44
2022-10-05T23:03:41.993Z,100049.16
2022-10-05T23:06:12.843Z,100041.97
2022-10-05T23:08:42.971Z,100054.81
2022-10-05T23:11:14.071Z,100057.94
2022-10-05T23:13:44.255Z,100048.81
2022-10-05T23:16:15.378Z,100040.56
2022-10-05T23:18:44.652Z,100049.47
2022-10-05T23:21:13.470Z,100051.16
2022-10-05T23:23:45.598Z,100057.59
2022-10-05T23:26:14.476Z,100053.72
2022-10-05T23:28:47.241Z,100050.19
2022-10-05T23:31:17.958Z,100056.28
2022-10-05T23:33:46.448Z,100051.31
2022-10-05T23:36:17.715Z,100060.50
2022-10-05T23:38:46.822Z,100057.50
2022-10-05T23:41:16.100Z,100055.28
2022-10-05T23:43:45.927Z,100062.56
2022-10-05T23:46:14.744Z,100060.31
2022-10-05T23:48:43.184Z,100060.06
2022-10-05T23:51:14.326Z,100070.09
2022-10-05T23:53:42.701Z,100067.88
2022-10-05T23:56:11.103Z,100074.28
2022-10-05T23:58:39.568Z,100079.56
